Time;durP1;ratioP1;P1;durP2;ratioP2;P2;SDS_P1;SDS_P2;PMS_P1;PMS_P2;Temp;Humidity;BMP_temperature;BMP_pressure;BME280_temperature;BME280_humidity;BME280_pressure;Samples;Min_cycle;Max_cycle;Signal;HPM_P1;HPM_P2
2021/10/27 00:01:54;;;;;;;6.03;5.43;;;;;;;6.54;100.00;99110.97;5073328;28;20226;-66
2021/10/27 00:04:21;;;;;;;5.73;5.13;;;;;;;6.53;100.00;99119.75;5072786;28;20239;-66
2021/10/27 00:06:48;;;;;;;6.43;5.77;;;;;;;6.47;100.00;99120.00;5072806;28;20215;-66
2021/10/27 00:09:15;;;;;;;6.67;5.43;;;;;;;6.51;100.00;99118.09;5073042;28;20223;-65
2021/10/27 00:11:41;;;;;;;6.43;5.80;;;;;;;6.50;100.00;99119.03;5072984;28;20265;-66
2021/10/27 00:14:08;;;;;;;8.77;6.10;;;;;;;6.47;100.00;99114.72;5072952;28;20250;-66
2021/10/27 00:16:36;;;;;;;7.13;6.07;;;;;;;6.44;100.00;99114.88;5057801;28;20243;-66
2021/10/27 00:19:02;;;;;;;9.17;6.97;;;;;;;6.46;100.00;99113.03;5073040;28;20216;-66
2021/10/27 00:21:30;;;;;;;9.33;7.00;;;;;;;6.45;100.00;99108.69;5073115;28;20222;-67
2021/10/27 00:23:57;;;;;;;9.43;7.03;;;;;;;6.47;100.00;99103.41;5072671;28;20274;-67
2021/10/27 00:26:23;;;;;;;8.00;6.60;;;;;;;6.50;100.00;99101.50;5071301;28;20219;-65
2021/10/27 00:28:51;;;;;;;13.70;9.00;;;;;;;6.56;100.00;99108.28;5072682;28;20665;-66
2021/10/27 00:31:17;;;;;;;12.87;8.87;;;;;;;6.66;100.00;99101.78;5072560;28;20216;-66
2021/10/27 00:33:44;;;;;;;13.27;9.20;;;;;;;6.68;100.00;99103.44;5072725;28;20221;-66
2021/10/27 00:36:11;;;;;;;12.87;10.07;;;;;;;6.66;100.00;99109.66;5072766;28;20304;-66
2021/10/27 00:38:39;;;;;;;14.37;10.90;;;;;;;6.63;100.00;99110.63;5073037;28;20220;-66
2021/10/27 00:41:07;;;;;;;14.63;10.30;;;;;;;6.66;100.00;99114.91;5072939;28;20214;-66
2021/10/27 00:43:33;;;;;;;12.83;11.00;;;;;;;6.70;100.00;99101.59;5072793;28;20245;-66
2021/10/27 00:46:00;;;;;;;15.23;11.07;;;;;;;6.73;100.00;99105.88;5072779;28;20217;-66
2021/10/27 00:48:27;;;;;;;13.17;10.30;;;;;;;6.74;100.00;99103.19;5072412;28;20222;-66
2021/10/27 00:50:53;;;;;;;16.90;12.27;;;;;;;6.77;100.00;99095.19;5072997;28;20573;-64
2021/10/27 00:53:20;;;;;;;14.43;10.87;;;;;;;6.84;100.00;99104.53;5075714;28;20596;-66
2021/10/27 00:55:48;;;;;;;16.47;12.07;;;;;;;6.88;100.00;99105.28;5076187;28;20223;-67
2021/10/27 00:58:15;;;;;;;15.00;11.53;;;;;;;6.83;100.00;99105.47;5076211;28;20790;-66
2021/10/27 01:00:42;;;;;;;14.47;11.00;;;;;;;6.76;100.00;99098.72;5073585;28;20217;-66
2021/10/27 01:03:08;;;;;;;14.03;10.13;;;;;;;6.74;100.00;99108.47;5072162;28;20239;-66
2021/10/27 01:05:35;;;;;;;14.03;10.47;;;;;;;6.77;100.00;99103.06;5074603;28;20586;-67
2021/10/27 01:08:01;;;;;;;11.87;10.03;;;;;;;6.83;100.00;99105.47;5075488;28;20220;-66
2021/10/27 01:10:28;;;;;;;15.50;11.73;;;;;;;6.93;100.00;99108.56;5075167;28;20212;-65
2021/10/27 01:12:56;;;;;;;14.87;11.43;;;;;;;7.03;100.00;99108.16;5075453;28;20217;-65
2021/10/27 01:15:22;;;;;;;17.67;12.23;;;;;;;7.09;100.00;99110.53;5076120;28;20323;-66
2021/10/27 01:17:49;;;;;;;16.37;13.10;;;;;;;7.19;100.00;99098.75;5074536;28;20209;-65
2021/10/27 01:20:17;;;;;;;18.37;13.30;;;;;;;7.29;100.00;99102.72;5076191;28;20576;-65
2021/10/27 01:22:43;;;;;;;19.23;14.40;;;;;;;7.40;100.00;99106.63;5076039;28;20211;-65
2021/10/27 01:25:12;;;;;;;16.93;12.47;;;;;;;7.44;100.00;99109.97;5075712;28;20223;-66
2021/10/27 01:27:41;;;;;;;16.97;12.80;;;;;;;7.49;100.00;99106.25;5076136;28;20575;-65
2021/10/27 01:30:11;;;;;;;17.67;12.60;;;;;;;7.49;100.00;99114.16;5076076;28;20219;-65
2021/10/27 01:32:38;;;;;;;17.23;12.23;;;;;;;7.51;100.00;99108.78;5075923;28;20219;-66
2021/10/27 01:35:06;;;;;;;15.47;11.53;;;;;;;7.52;100.00;99107.88;5075705;28;20217;-66
2021/10/27 01:37:34;;;;;;;17.60;13.00;;;;;;;7.55;100.00;99102.50;5075855;28;20216;-65
2021/10/27 01:40:00;;;;;;;19.37;13.27;;;;;;;7.61;100.00;99105.75;5075768;28;20222;-66
2021/10/27 01:42:27;;;;;;;16.67;13.07;;;;;;;7.68;100.00;99106.31;5075707;28;20211;-65
2021/10/27 01:44:53;;;;;;;13.23;11.10;;;;;;;7.71;100.00;99111.47;5073835;28;20251;-66
2021/10/27 01:47:20;;;;;;;15.93;12.23;;;;;;;7.72;100.00;99113.19;5075132;28;20850;-66
2021/10/27 01:49:47;;;;;;;16.90;12.77;;;;;;;7.77;100.00;99108.56;5075537;28;20298;-66
2021/10/27 01:52:14;;;;;;;15.00;11.83;;;;;;;7.75;100.00;99097.25;5075543;28;20222;-66
2021/10/27 01:54:42;;;;;;;15.53;11.87;;;;;;;7.78;100.00;99102.38;5075450;28;20211;-66
2021/10/27 01:57:09;;;;;;;16.77;12.63;;;;;;;7.75;100.00;99097.25;5075430;28;20577;-66
2021/10/27 01:59:35;;;;;;;15.07;12.13;;;;;;;7.77;100.00;99091.00;5075276;28;20232;-66
2021/10/27 02:02:02;;;;;;;13.83;11.67;;;;;;;7.78;100.00;99102.38;5074845;28;20220;-66
2021/10/27 02:04:28;;;;;;;14.00;11.40;;;;;;;7.84;100.00;99102.97;5075029;28;20315;-66
2021/10/27 02:06:55;;;;;;;14.00;11.43;;;;;;;7.87;100.00;99091.44;5075194;28;20220;-66
2021/10/27 02:09:22;;;;;;;14.80;11.70;;;;;;;7.87;100.00;99091.44;5075155;28;20299;-66
2021/10/27 02:11:50;;;;;;;12.63;10.90;;;;;;;7.87;100.00;99096.72;5073160;28;20691;-65
2021/10/27 02:14:16;;;;;;;14.60;11.20;;;;;;;7.87;100.00;99101.97;5074671;28;20216;-68
2021/10/27 02:16:43;;;;;;;12.57;10.70;;;;;;;7.87;100.00;99100.22;5074245;28;20593;-65
2021/10/27 02:19:10;;;;;;;12.53;10.87;;;;;;;7.88;100.00;99098.41;5074843;28;20239;-65
2021/10/27 02:21:37;;;;;;;14.03;11.63;;;;;;;7.89;100.00;99100.16;5075005;28;20333;-66
2021/10/27 02:24:04;;;;;;;12.07;10.30;;;;;;;7.88;100.00;99099.28;5074781;28;20237;-66
2021/10/27 02:26:30;;;;;;;13.37;11.00;;;;;;;7.89;100.00;99100.16;5074759;28;20219;-66
2021/10/27 02:28:58;;;;;;;12.10;10.73;;;;;;;7.87;100.00;99096.72;5074641;28;20219;-66
2021/10/27 02:31:25;;;;;;;12.27;10.60;;;;;;;7.88;100.00;99103.69;5074848;28;20207;-65
2021/10/27 02:33:52;;;;;;;13.30;10.80;;;;;;;7.86;100.00;99102.91;5074580;28;20321;-66
2021/10/27 02:36:19;;;;;;;13.30;11.40;;;;;;;7.84;100.00;99099.50;5072644;28;20677;-65
2021/10/27 02:38:45;;;;;;;12.17;10.87;;;;;;;7.84;100.00;99102.13;5074740;28;20303;-65
2021/10/27 02:41:13;;;;;;;12.00;10.77;;;;;;;7.84;100.00;99107.38;5074256;28;20678;-65
2021/10/27 02:43:39;;;;;;;14.13;11.43;;;;;;;7.83;100.00;99108.31;5074100;28;20247;-65
2021/10/27 02:46:07;;;;;;;14.53;11.80;;;;;;;7.85;100.00;99101.19;5074464;28;20230;-65
2021/10/27 02:48:34;;;;;;;15.03;12.30;;;;;;;7.89;100.00;99103.63;5074417;28;20212;-65
2021/10/27 02:51:00;;;;;;;14.27;11.30;;;;;;;7.88;100.00;99114.22;5074324;28;20214;-66
2021/10/27 02:53:27;;;;;;;14.27;11.40;;;;;;;7.86;100.00;99110.81;5074337;28;20225;-65
2021/10/27 02:55:53;;;;;;;14.33;11.07;;;;;;;7.86;100.00;99121.34;5058914;28;20216;-65
2021/10/27 02:58:20;;;;;;;12.63;10.27;;;;;;;7.84;100.00;99117.91;5074070;28;20213;-65
2021/10/27 03:00:46;;;;;;;13.67;11.47;;;;;;;7.83;100.00;99117.06;5074061;28;20208;-65
2021/10/27 03:03:14;;;;;;;13.20;11.53;;;;;;;7.82;100.00;99117.97;5072400;28;20216;-65
2021/10/27 03:05:41;;;;;;;12.33;10.40;;;;;;;7.81;100.00;99118.03;5073643;28;20693;-65
2021/10/27 03:08:07;;;;;;;13.37;11.27;;;;;;;7.78;100.00;99115.53;5073996;28;20215;-65
2021/10/27 03:10:34;;;;;;;13.83;11.37;;;;;;;7.76;100.00;99110.34;5073571;28;20212;-65
2021/10/27 03:13:00;;;;;;;15.27;12.53;;;;;;;7.78;100.00;99112.91;5073386;28;20221;-66
2021/10/27 03:15:33;;;;;;;15.57;12.43;;;;;;;7.76;100.00;99112.09;5072648;28;20248;-65
2021/10/27 03:18:00;;;;;;;14.87;11.97;;;;;;;7.74;100.00;99113.97;5073801;28;20215;-64
2021/10/27 03:20:29;;;;;;;14.80;11.30;;;;;;;7.71;100.00;99106.22;5073614;28;20209;-65
2021/10/27 03:22:55;;;;;;;14.13;11.60;;;;;;;7.69;100.00;99108.03;5073305;28;20689;-65
2021/10/27 03:25:22;;;;;;;15.97;11.30;;;;;;;7.67;100.00;99107.25;5073512;28;20239;-65
2021/10/27 03:27:48;;;;;;;14.70;11.07;;;;;;;7.61;100.00;99115.41;5073322;28;20227;-65
2021/10/27 03:30:15;;;;;;;16.83;12.77;;;;;;;7.58;100.00;99110.25;5071562;28;20685;-66
2021/10/27 03:32:42;;;;;;;16.00;12.23;;;;;;;7.56;100.00;99114.72;5072600;28;20222;-66
2021/10/27 03:35:09;;;;;;;12.60;11.30;;;;;;;7.58;100.00;99118.13;5073180;28;20698;-66
2021/10/27 03:37:37;;;;;;;14.00;11.43;;;;;;;7.56;100.00;99123.50;5073415;28;20224;-66
2021/10/27 03:40:04;;;;;;;12.93;10.80;;;;;;;7.59;100.00;99118.09;5073249;28;20212;-66
2021/10/27 03:42:31;;;;;;;14.23;11.30;;;;;;;7.60;100.00;99118.94;5073575;28;20221;-65
2021/10/27 03:44:57;;;;;;;13.70;11.13;;;;;;;7.55;100.00;99121.78;5072368;28;20247;-65
2021/10/27 03:47:24;;;;;;;14.47;11.63;;;;;;;7.55;100.00;99115.66;5073104;28;20213;-65
2021/10/27 03:49:50;;;;;;;11.47;10.13;;;;;;;7.54;100.00;99119.22;5072983;28;20212;-65
2021/10/27 03:52:17;;;;;;;13.20;11.37;;;;;;;7.55;100.00;99120.91;5072869;28;20693;-66
2021/10/27 03:54:45;;;;;;;15.17;11.63;;;;;;;7.55;100.00;99121.78;5071345;28;20855;-66
2021/10/27 03:57:11;;;;;;;16.00;12.43;;;;;;;7.53;100.00;99118.34;5072962;28;20220;-66
2021/10/27 03:59:38;;;;;;;15.17;11.83;;;;;;;7.53;100.00;99123.59;5072899;28;20215;-66
2021/10/27 04:02:05;;;;;;;12.07;10.67;;;;;;;7.51;100.00;99119.31;5072895;28;20215;-65
2021/10/27 04:04:31;;;;;;;15.17;11.57;;;;;;;7.49;100.00;99121.16;5073056;28;20236;-66
2021/10/27 04:06:58;;;;;;;14.03;11.97;;;;;;;7.45;100.00;99123.06;5073212;28;20281;-65
2021/10/27 04:09:24;;;;;;;13.43;11.23;;;;;;;7.43;100.00;99121.41;5072731;28;20696;-66
2021/10/27 04:11:52;;;;;;;15.13;11.73;;;;;;;7.41;100.00;99129.38;5072922;28;20268;-66
2021/10/27 04:14:19;;;;;;;19.13;14.17;;;;;;;7.34;100.00;99132.31;5072868;28;20223;-66
2021/10/27 04:16:45;;;;;;;14.87;11.93;;;;;;;7.36;100.00;99126.06;5072886;28;20222;-65
2021/10/27 04:19:12;;;;;;;17.33;12.93;;;;;;;7.35;100.00;99134.88;5072990;28;20211;-65
2021/10/27 04:21:38;;;;;;;18.13;12.87;;;;;;;7.32;100.00;99136.78;5070964;28;20688;-66
2021/10/27 04:24:05;;;;;;;15.73;13.53;;;;;;;7.33;100.00;99136.72;5072771;28;20253;-66
2021/10/27 04:26:32;;;;;;;17.70;13.70;;;;;;;7.33;100.00;99138.47;5076802;28;20222;-66
2021/10/27 04:29:00;;;;;;;19.07;13.53;;;;;;;7.35;100.00;99144.56;5076782;28;20211;-66
2021/10/27 04:31:27;;;;;;;16.87;13.73;;;;;;;7.34;100.00;99141.06;5077112;28;20215;-66
2021/10/27 04:33:53;;;;;;;18.20;13.33;;;;;;;7.37;100.00;99145.34;5076704;28;20583;-66
2021/10/27 04:36:20;;;;;;;15.97;13.00;;;;;;;7.33;100.00;99146.38;5076564;28;20673;-66
2021/10/27 04:38:46;;;;;;;16.97;12.57;;;;;;;7.34;100.00;99148.09;5076756;28;20215;-66
2021/10/27 04:41:12;;;;;;;18.67;13.63;;;;;;;7.34;100.00;99142.84;5076715;28;20223;-66
2021/10/27 04:43:39;;;;;;;18.23;12.87;;;;;;;7.32;100.00;99144.66;5076326;28;20215;-66
2021/10/27 04:46:07;;;;;;;16.17;12.40;;;;;;;7.32;100.00;99145.53;5076686;28;20234;-66
2021/10/27 04:48:33;;;;;;;15.93;12.07;;;;;;;7.28;100.00;99143.09;5074046;28;20207;-66
2021/10/27 04:51:00;;;;;;;15.47;12.20;;;;;;;7.28;100.00;99145.72;5076190;28;20221;-66
2021/10/27 04:53:27;;;;;;;17.40;13.87;;;;;;;7.24;100.00;99138.84;5076263;28;20208;-66
2021/10/27 04:55:53;;;;;;;16.10;12.60;;;;;;;7.23;100.00;99139.78;5075956;28;20219;-66
2021/10/27 04:58:21;;;;;;;17.07;13.20;;;;;;;7.22;100.00;99144.16;5076329;28;20215;-66
2021/10/27 05:00:47;;;;;;;17.20;13.13;;;;;;;7.20;100.00;99136.44;5076179;28;20212;-66
2021/10/27 05:03:15;;;;;;;17.87;13.80;;;;;;;7.20;100.00;99139.06;5076214;28;20216;-65
2021/10/27 05:05:46;;;;;;;17.90;13.87;;;;;;;7.16;100.00;99138.31;5060809;28;20249;-66
2021/10/27 05:08:15;;;;;;;18.80;14.57;;;;;;;7.16;100.00;99138.31;5075925;28;20218;-66
2021/10/27 05:10:41;;;;;;;18.93;14.17;;;;;;;7.15;100.00;99135.75;5076196;28;20238;-66
2021/10/27 05:13:08;;;;;;;20.70;16.20;;;;;;;7.14;100.00;99140.13;5075217;28;20218;-66
2021/10/27 05:15:34;;;;;;;17.87;14.07;;;;;;;7.15;100.00;99131.31;5075278;28;20243;-66
2021/10/27 05:18:01;;;;;;;21.43;16.47;;;;;;;7.13;100.00;99127.91;5075753;28;20700;-65
2021/10/27 05:20:28;;;;;;;18.97;15.13;;;;;;;7.15;100.00;99128.69;5075676;28;20676;-66
2021/10/27 05:22:55;;;;;;;22.77;15.27;;;;;;;7.10;100.00;99133.31;5075630;28;20211;-65
2021/10/27 05:25:21;;;;;;;17.33;13.60;;;;;;;7.06;100.00;99131.69;5060637;28;20263;-65
2021/10/27 05:27:48;;;;;;;16.40;13.93;;;;;;;7.03;100.00;99131.81;5075993;28;20216;-66
2021/10/27 05:30:14;;;;;;;16.90;13.10;;;;;;;7.00;100.00;99125.81;5075916;28;20213;-65
2021/10/27 05:32:41;;;;;;;16.97;13.07;;;;;;;7.04;100.00;99130.03;5075828;28;20215;-65
2021/10/27 05:35:08;;;;;;;16.50;13.03;;;;;;;7.04;100.00;99125.66;5075403;28;20218;-66
2021/10/27 05:37:36;;;;;;;17.07;12.60;;;;;;;7.05;100.00;99130.00;5074743;28;20211;-66
2021/10/27 05:40:03;;;;;;;18.73;13.60;;;;;;;7.07;100.00;99136.03;5073892;28;20222;-66
2021/10/27 05:42:30;;;;;;;17.13;13.23;;;;;;;7.08;100.00;99123.75;5075678;28;20215;-66
2021/10/27 05:44:57;;;;;;;18.37;12.80;;;;;;;7.10;100.00;99137.69;5075331;28;20715;-65
2021/10/27 05:47:24;;;;;;;18.37;12.73;;;;;;;7.11;100.00;99127.13;5075253;28;20225;-65
2021/10/27 05:49:53;;;;;;;16.13;11.97;;;;;;;7.11;100.00;99135.00;5075286;28;20251;-66
2021/10/27 05:55:23;;;;;;;15.17;11.80;;;;;;;7.17;100.00;99145.28;5061919;28;20596;-65
2021/10/27 05:57:49;;;;;;;16.80;11.93;;;;;;;7.18;100.00;99147.00;5075496;28;20211;-65
2021/10/27 06:00:16;;;;;;;16.00;12.23;;;;;;;7.18;100.00;99147.81;5075367;28;20258;-65
2021/10/27 06:02:42;;;;;;;13.40;11.00;;;;;;;7.16;100.00;99148.84;5071781;28;20574;-66
2021/10/27 06:05:10;;;;;;;14.37;11.60;;;;;;;7.17;100.00;99150.53;5075013;28;20244;-66
2021/10/27 06:07:37;;;;;;;16.33;11.73;;;;;;;7.17;100.00;99142.66;5073193;28;20215;-66
2021/10/27 06:10:06;;;;;;;15.63;12.27;;;;;;;7.15;100.00;99146.25;5075189;28;20273;-66
2021/10/27 06:12:33;;;;;;;16.67;11.30;;;;;;;7.11;100.00;99148.16;5059509;28;20270;-65
2021/10/27 06:14:59;;;;;;;13.90;10.90;;;;;;;7.11;100.00;99149.91;5074938;28;20235;-66
2021/10/27 06:17:25;;;;;;;14.20;10.50;;;;;;;7.10;100.00;99156.97;5075066;28;20223;-66
2021/10/27 06:19:54;;;;;;;15.67;11.13;;;;;;;7.13;100.00;99154.19;5074808;28;20680;-65
2021/10/27 06:22:21;;;;;;;14.53;11.57;;;;;;;7.15;100.00;99164.66;5074723;28;20219;-65
2021/10/27 06:24:48;;;;;;;14.50;10.87;;;;;;;7.17;100.00;99166.31;5074754;28;20235;-65
2021/10/27 06:27:16;;;;;;;14.03;11.27;;;;;;;7.15;100.00;99152.34;5074535;28;20218;-65
2021/10/27 06:29:45;;;;;;;14.40;11.97;;;;;;;7.15;100.00;99154.97;5074573;28;20216;-65
2021/10/27 06:32:20;;;;;;;15.53;11.70;;;;;;;7.04;100.00;99157.19;5072922;28;20602;-65
2021/10/27 06:34:50;;;;;;;13.87;11.47;;;;;;;6.99;100.00;99169.66;5074747;28;20246;-65
2021/10/27 06:37:43;;;;;;;14.33;11.90;;;;;;;7.02;100.00;99177.41;5074282;28;20706;-65
2021/10/27 06:48:24;;;;;;;15.70;11.00;;;;;;;7.07;100.00;99175.47;5074182;28;20231;-65
2021/10/27 06:50:50;;;;;;;14.47;11.57;;;;;;;6.97;100.00;99179.34;5074376;28;20211;-65
2021/10/27 06:53:16;;;;;;;13.47;10.83;;;;;;;6.89;100.00;99181.44;5074432;28;20225;-65
2021/10/27 06:55:43;;;;;;;14.87;10.90;;;;;;;6.80;100.00;99181.78;5073530;28;20219;-65
2021/10/27 06:58:13;;;;;;;13.23;10.70;;;;;;;6.74;100.00;99184.66;5072977;28;20233;-65
2021/10/27 07:00:43;;;;;;;15.27;11.20;;;;;;;6.70;100.00;99184.78;5074280;28;20241;-66
2021/10/27 07:03:30;;;;;;;13.87;11.53;;;;;;;6.66;100.00;99177.97;5074066;28;20242;-65
2021/10/27 07:16:52;;;;;;;13.40;11.33;;;;;;;6.77;100.00;99188.94;5052393;28;20224;-65
2021/10/27 07:19:19;;;;;;;13.57;10.77;;;;;;;6.83;100.00;99192.16;5072899;28;20234;-65
2021/10/27 07:21:47;;;;;;;13.60;10.80;;;;;;;6.93;100.00;99197.94;5073711;28;20309;-66
2021/10/27 07:24:15;;;;;;;14.30;11.67;;;;;;;6.95;100.00;99201.38;5073067;28;20239;-65
2021/10/27 07:26:42;;;;;;;15.23;11.93;;;;;;;7.03;100.00;99204.56;5072821;28;20223;-65
2021/10/27 07:29:10;;;;;;;16.67;12.27;;;;;;;7.07;100.00;99208.78;5072813;28;20243;-65
2021/10/27 07:31:37;;;;;;;13.90;11.77;;;;;;;7.11;100.00;99206.00;5073587;28;20216;-65
2021/10/27 07:34:08;;;;;;;15.90;12.23;;;;;;;7.08;100.00;99203.47;5073698;28;20220;-65
2021/10/27 07:39:51;;;;;;;17.17;12.73;;;;;;;7.06;100.00;99204.44;5072862;28;20559;-64
2021/10/27 07:42:14;;;;;;;14.30;12.30;;;;;;;7.15;100.00;99204.09;5072203;28;20218;-65
2021/10/27 07:44:42;;;;;;;18.00;13.30;;;;;;;7.15;100.00;99199.69;5072398;28;20231;-66
2021/10/27 07:47:09;;;;;;;18.20;13.33;;;;;;;7.24;100.00;99212.47;5069504;28;20203;-67
2021/10/27 07:49:35;;;;;;;16.73;12.87;;;;;;;7.36;100.00;99214.63;5061234;28;20219;-66
2021/10/27 07:52:02;;;;;;;16.27;12.80;;;;;;;7.42;100.00;99209.13;5071111;28;20219;-66
2021/10/27 07:54:28;;;;;;;16.50;12.37;;;;;;;7.45;100.00;99214.25;5071541;28;20232;-66
2021/10/27 07:56:55;;;;;;;16.13;12.93;;;;;;;7.52;100.00;99211.31;5072636;28;20241;-67
2021/10/27 07:59:21;;;;;;;15.60;12.37;;;;;;;7.51;100.00;99208.75;5071469;28;20609;-67
2021/10/27 08:01:49;;;;;;;15.33;12.90;;;;;;;7.59;100.00;99206.69;5071207;28;20242;-67
2021/10/27 08:04:16;;;;;;;13.43;11.10;;;;;;;7.65;100.00;99211.72;5072361;28;20224;-67
2021/10/27 08:06:44;;;;;;;13.60;11.27;;;;;;;7.70;100.00;99207.09;5072067;28;20247;-68
2021/10/27 08:09:10;;;;;;;12.90;11.53;;;;;;;7.75;100.00;99208.63;5071139;28;20213;-67
2021/10/27 08:11:37;;;;;;;13.50;11.40;;;;;;;7.80;100.00;99203.19;5071601;28;20216;-67
2021/10/27 08:14:03;;;;;;;16.20;13.53;;;;;;;7.85;100.00;99203.84;5072041;28;20212;-67
2021/10/27 08:16:30;;;;;;;16.30;13.03;;;;;;;7.91;100.00;99203.59;5071344;28;20236;-67
2021/10/27 08:18:58;;;;;;;16.60;12.97;;;;;;;7.95;100.00;99213.09;5069888;28;20218;-67
2021/10/27 08:21:25;;;;;;;17.00;13.37;;;;;;;8.03;100.00;99218.88;5071857;28;20220;-66
2021/10/27 08:23:52;;;;;;;15.47;12.10;;;;;;;8.06;100.00;99219.59;5070936;28;20683;-67
2021/10/27 08:26:22;;;;;;;14.90;12.20;;;;;;;8.11;100.00;99225.53;5071918;28;20342;-68
2021/10/27 08:28:54;;;;;;;14.43;12.23;;;;;;;8.21;100.00;99228.66;5071672;28;20220;-66
2021/10/27 08:31:32;;;;;;;14.17;11.33;;;;;;;8.30;100.00;99228.25;5070791;28;20209;-68
2021/10/27 08:34:11;;;;;;;14.23;11.20;;;;;;;8.39;100.00;99217.34;5071713;28;20671;-67
2021/10/27 08:36:38;;;;;;;15.00;12.00;;;;;;;8.51;100.00;99217.66;5071571;28;20265;-67
2021/10/27 08:39:07;;;;;;;14.13;11.90;;;;;;;8.67;100.00;99218.69;5070683;28;20214;-67
2021/10/27 08:41:34;;;;;;;14.30;11.47;;;;;;;8.78;100.00;99218.22;5071587;28;20224;-67
2021/10/27 08:44:01;;;;;;;16.17;12.20;;;;;;;8.86;100.00;99216.06;5069894;28;20207;-67
2021/10/27 08:46:29;;;;;;;15.87;12.10;;;;;;;8.91;100.00;99222.88;5070919;28;20247;-66
2021/10/27 08:48:57;;;;;;;14.10;11.60;;;;;;;8.97;100.00;99216.44;5062642;28;20360;-67
2021/10/27 08:51:28;;;;;;;14.57;10.63;;;;;;;9.08;100.00;99224.72;5067549;28;20225;-66
2021/10/27 08:53:55;;;;;;;14.77;11.10;;;;;;;9.11;100.00;99214.91;5070387;28;20268;-66
2021/10/27 08:56:23;;;;;;;11.83;10.47;;;;;;;9.17;100.00;99219.06;5070954;28;20211;-66
2021/10/27 08:58:53;;;;;;;10.33;9.07;;;;;;;9.24;100.00;99210.75;5070626;28;20219;-66
2021/10/27 09:01:30;;;;;;;9.93;8.93;;;;;;;9.32;100.00;99213.91;5070796;28;20554;-66
2021/10/27 09:04:09;;;;;;;12.17;10.63;;;;;;;9.45;100.00;99216.81;5071722;28;20218;-65
2021/10/27 09:06:42;;;;;;;11.30;10.07;;;;;;;9.50;100.00;99213.03;5071615;28;20239;-65
2021/10/27 09:15:32;;;;;;;11.57;9.73;;;;;;;9.78;100.00;99209.91;5090319;28;20236;-67
2021/10/27 09:44:32;;;;;;;10.33;8.03;;;;;;;10.65;100.00;99184.28;5089342;28;20227;-66
2021/10/27 10:06:25;;;;;;;9.37;7.57;;;;;;;11.29;100.00;99166.63;5087578;28;20688;-66
2021/10/27 10:08:53;;;;;;;8.77;7.87;;;;;;;11.36;100.00;99154.75;5089040;28;20246;-66
2021/10/27 10:11:20;;;;;;;10.13;7.43;;;;;;;11.45;100.00;99152.47;5088488;28;20609;-66
2021/10/27 10:13:48;;;;;;;8.67;7.77;;;;;;;11.59;100.00;99163.16;5089381;28;20218;-64
2021/10/27 10:16:15;;;;;;;9.67;7.73;;;;;;;11.62;100.00;99151.53;5088980;28;21859;-65
2021/10/27 10:18:46;;;;;;;9.67;8.17;;;;;;;11.74;100.00;99153.47;5089452;28;20223;-65
2021/10/27 10:21:13;;;;;;;8.13;7.17;;;;;;;11.87;100.00;99151.81;5088268;28;20599;-65
2021/10/27 10:23:39;;;;;;;9.23;8.17;;;;;;;11.97;100.00;99152.97;5075127;28;20213;-66
2021/10/27 10:26:08;;;;;;;9.40;7.13;;;;;;;12.06;100.00;99147.13;5075286;28;20705;-66
2021/10/27 10:28:38;;;;;;;8.63;6.63;;;;;;;12.19;100.00;99150.75;5075766;28;20298;-66
2021/10/27 10:31:07;;;;;;;10.30;6.43;;;;;;;12.29;99.62;99150.13;5073926;28;20243;-66
2021/10/27 10:33:41;;;;;;;7.43;6.40;;;;;;;12.44;98.74;99148.34;5075274;28;20698;-66
2021/10/27 10:36:12;;;;;;;7.70;5.90;;;;;;;12.56;98.89;99151.13;5060439;28;20294;-66
2021/10/27 10:41:52;;;;;;;6.20;5.60;;;;;;;12.87;96.29;99147.41;5069089;28;20211;-66
2021/10/27 10:59:34;;;;;;;7.07;4.27;;;;;;;13.30;92.98;99133.16;5069478;28;20684;-66
2021/10/27 11:23:04;;;;;;;5.27;2.90;;;;;;;13.87;86.11;99100.13;5072690;28;20234;-64
2021/10/27 11:25:46;;;;;;;3.13;2.27;;;;;;;13.84;84.04;99095.88;5074539;28;20212;-65
2021/10/27 11:42:04;;;;;;;4.10;3.30;;;;;;;13.85;85.13;99072.78;5073742;28;20916;-65
2021/10/27 11:44:37;;;;;;;4.60;3.23;;;;;;;13.89;85.34;99068.97;5073808;28;20682;-66
2021/10/27 11:47:08;;;;;;;4.90;3.30;;;;;;;13.96;83.05;99067.59;5073958;28;20224;-66
2021/10/27 11:49:38;;;;;;;4.07;2.60;;;;;;;13.96;84.14;99064.94;5072533;28;20273;-65
2021/10/27 11:52:04;;;;;;;3.20;2.40;;;;;;;13.94;83.90;99057.06;5073890;28;20741;-66
2021/10/27 11:54:31;;;;;;;2.97;1.97;;;;;;;13.96;81.76;99056.97;5073947;28;20221;-65
2021/10/27 11:57:01;;;;;;;2.80;1.97;;;;;;;13.99;81.71;99059.44;5074102;28;20208;-65
2021/10/27 11:59:39;;;;;;;2.03;1.80;;;;;;;13.98;83.62;99050.59;5073769;28;20209;-66
2021/10/27 12:02:05;;;;;;;2.00;1.80;;;;;;;14.00;83.43;99050.50;5073816;28;20276;-65
2021/10/27 12:04:34;;;;;;;2.63;2.03;;;;;;;14.01;83.22;99047.75;5073423;28;20216;-66
2021/10/27 12:07:09;;;;;;;3.33;2.10;;;;;;;14.02;82.78;99051.22;5072888;28;20682;-65
2021/10/27 12:09:46;;;;;;;4.80;2.83;;;;;;;14.04;80.91;99044.00;5072974;28;20651;-66
2021/10/27 12:12:19;;;;;;;3.50;2.50;;;;;;;14.04;80.25;99038.69;5066733;28;20237;-66
2021/10/27 12:15:28;;;;;;;4.13;3.73;;;;;;;14.08;83.02;99035.72;5071490;28;20701;-65
2021/10/27 12:18:09;;;;;;;3.73;3.30;;;;;;;14.15;82.91;99036.13;5072296;28;20248;-65
2021/10/27 12:20:38;;;;;;;3.80;3.30;;;;;;;14.18;82.47;99030.63;5059927;28;20219;-65
2021/10/27 12:23:05;;;;;;;4.03;3.60;;;;;;;14.19;82.05;99029.69;5072910;28;20285;-66
2021/10/27 12:25:32;;;;;;;4.03;3.63;;;;;;;14.22;82.93;99019.69;5072856;28;20213;-65
2021/10/27 12:28:03;;;;;;;4.70;3.43;;;;;;;14.22;81.68;99017.03;5073125;28;20218;-66
2021/10/27 12:30:38;;;;;;;4.67;3.73;;;;;;;14.26;81.50;99012.34;5073115;28;20738;-66
2021/10/27 12:33:05;;;;;;;6.00;5.37;;;;;;;14.21;83.25;99003.84;5069132;28;20217;-66
2021/10/27 12:35:33;;;;;;;6.20;4.80;;;;;;;14.26;83.45;99001.72;5069472;28;20221;-65
2021/10/27 12:38:06;;;;;;;5.40;4.90;;;;;;;14.36;83.05;98992.13;5073034;28;20243;-66
2021/10/27 12:40:39;;;;;;;5.57;4.97;;;;;;;14.43;82.39;98993.41;5073045;28;20799;-65
2021/10/27 12:43:08;;;;;;;7.17;5.00;;;;;;;14.50;82.04;98984.03;5071217;28;20743;-66
2021/10/27 12:45:37;;;;;;;4.43;4.00;;;;;;;14.56;80.61;98983.59;5072792;28;20219;-66
2021/10/27 12:48:06;;;;;;;4.13;3.73;;;;;;;14.61;82.48;98986.78;5073178;28;20616;-66
2021/10/27 12:50:33;;;;;;;5.37;3.93;;;;;;;14.67;82.08;98983.66;5073048;28;20222;-65
2021/10/27 12:53:02;;;;;;;4.83;3.93;;;;;;;14.73;80.35;98988.53;5073199;28;20222;-66
2021/10/27 12:55:31;;;;;;;4.87;3.73;;;;;;;14.79;77.59;98982.78;5072907;28;20302;-66
2021/10/27 12:58:05;;;;;;;5.73;3.80;;;;;;;14.83;77.50;98976.25;5073350;28;20308;-66
2021/10/27 13:00:49;;;;;;;6.00;3.50;;;;;;;14.81;78.18;98978.19;5072948;28;20260;-66
2021/10/27 13:03:28;;;;;;;4.30;3.37;;;;;;;14.81;77.32;98973.72;5072966;28;20263;-66
2021/10/27 13:06:02;;;;;;;4.13;3.30;;;;;;;14.84;76.86;98957.50;5072981;28;20240;-66
2021/10/27 13:11:31;;;;;;;4.87;2.83;;;;;;;14.81;78.01;98967.53;5068607;28;20261;-66
2021/10/27 13:17:17;;;;;;;3.00;2.33;;;;;;;14.92;76.62;98956.97;5072830;28;20304;-66
2021/10/27 13:22:40;;;;;;;3.07;2.23;;;;;;;14.79;76.63;98953.50;5061795;28;20612;-66
2021/10/27 13:30:47;;;;;;;4.07;3.57;;;;;;;14.71;74.51;98955.84;5072496;28;20237;-66
2021/10/27 13:33:17;;;;;;;3.90;3.20;;;;;;;14.70;75.04;98955.03;5056672;28;20220;-66
2021/10/27 13:35:43;;;;;;;4.20;3.00;;;;;;;14.73;75.50;98949.47;5072696;28;20217;-66
2021/10/27 13:38:10;;;;;;;3.37;2.90;;;;;;;14.74;76.99;98959.13;5072624;28;20220;-66
2021/10/27 13:40:41;;;;;;;3.57;2.80;;;;;;;14.77;76.82;98947.41;5072308;28;20220;-66
2021/10/27 13:43:09;;;;;;;2.97;2.50;;;;;;;14.90;74.71;98949.09;5072178;28;20225;-66
2021/10/27 13:45:39;;;;;;;1.83;1.43;;;;;;;14.98;72.74;98948.53;5072538;28;20296;-66
2021/10/27 13:48:12;;;;;;;2.53;1.60;;;;;;;14.95;71.94;98943.41;5072300;28;20300;-65
2021/10/27 14:05:56;;;;;;;2.80;1.50;;;;;;;14.99;73.16;98944.91;5074331;28;20236;-66
2021/10/27 14:07:39;;;;;;;3.00;1.30;;;;;;;15.14;65.00;98941.06;5075832;28;20225;-66